Huvudsida
METAR-TAF:

METAR-TAF

Flygplatser :

N'Djamena, Tchad

latitud: 12-08N, longitud: 015-02E, höjd: 295 m

Aktuellt väderrapport

Denna rapport gjordes för 33 minuter sedan, klockan 14:00 UTC
Vind 7 kt från väst/nordväst, varierande mellan väst/nordväst och ost/nordost
Temperatur 36°C
Fuktighet 14%
Tryck 1010 hPa
Sikt 10 km eller mer
Inga moln under 1 500 m eller inga cumulonimbus

METAR: FTTJ 161400Z 30007KT 300V060 CAVOK 36/04 Q1010 NOSIG

Tid: 15:33 (14:33 UTC)

Väderprognos

Denna rapport gjordes för 3 timmar och 33 minuter sedan, klockan 11:00 UTC
Prognos gäller från 16 kl. 12 UTC till 17 kl. 18 UTC
Vind 10 kt från nord
Sikt 10 km eller mer
Inga moln under 1 500 m eller inga cumulonimbus
Temporärt
från 16 kl. 17 UTC till 16 kl. 20 UTC
Sikt: 4000 m
torrdis
Temporärt
från 17 kl. 04 UTC till 17 kl. 08 UTC
Sikt: 4000 m
torrdis

TAF: FTTJ 161100Z 1612/1718 36010KT CAVOK TEMPO 1617/1620 4000 HZ TEMPO 1704/1708 4000 HZ

Aktuella väderrapporter och prognoser från 4000 flygplatser (METAR- och TAF-rapporter).

De tillgängliga stationerna syns som gula och röda prickar på kartan.

För musen över prickarna för att se namnen på stationerna.

Klicka sedan för att få väderrapporter och prognoser.

För att ändra kartan: Klicka på de gröna knapparna med ett svart kors på för att zooma in; den gröna knappen med ett streck på för att zooma ut; eller på de gröna pilarna för angränsande kartor.


METAR-TAF: